createdAt,value
2019-04-20T00:00:04.384Z,1011.50
2019-04-20T00:01:01.573Z,1011.46
2019-04-20T00:02:07.231Z,1011.52
2019-04-20T00:03:01.353Z,1011.51
2019-04-20T00:03:59.412Z,1011.48
2019-04-20T00:04:59.404Z,1011.52
2019-04-20T00:05:59.418Z,1011.49
2019-04-20T00:06:59.378Z,1011.50
2019-04-20T00:08:03.218Z,1011.49
2019-04-20T00:09:08.817Z,1011.49
2019-04-20T00:10:06.280Z,1011.45
2019-04-20T00:11:07.994Z,1011.47
2019-04-20T00:12:08.920Z,1011.52
2019-04-20T00:13:12.516Z,1011.46
2019-04-20T00:14:08.540Z,1011.45
2019-04-20T00:15:00.629Z,1011.53
2019-04-20T00:15:59.944Z,1011.52
2019-04-20T00:16:59.269Z,1011.53
2019-04-20T00:18:02.194Z,1011.53
2019-04-20T00:19:03.228Z,1011.55
2019-04-20T00:20:04.015Z,1011.55
2019-04-20T00:21:05.525Z,1011.53
2019-04-20T00:22:04.586Z,1011.51
2019-04-20T00:23:00.200Z,1011.51
2019-04-20T00:24:01.043Z,1011.51
2019-04-20T00:25:04.249Z,1011.50
2019-04-20T00:26:06.774Z,1011.44
2019-04-20T00:27:22.092Z,1011.49
2019-04-20T00:28:22.724Z,1011.48
2019-04-20T00:29:20.189Z,1011.51
2019-04-20T00:30:26.441Z,1011.50
2019-04-20T00:31:20.698Z,1011.55
2019-04-20T00:32:13.438Z,1011.54
2019-04-20T00:33:09.604Z,1011.57
2019-04-20T00:34:06.681Z,1011.50
2019-04-20T00:35:00.064Z,1011.51
2019-04-20T00:35:59.054Z,1011.53
2019-04-20T00:37:00.291Z,1011.55
2019-04-20T00:37:59.171Z,1011.56
2019-04-20T00:39:02.744Z,1011.51
2019-04-20T00:40:00.007Z,1011.53
2019-04-20T00:41:03.698Z,1011.54
2019-04-20T00:42:05.605Z,1011.53
2019-04-20T00:43:01.482Z,1011.49
2019-04-20T00:44:07.153Z,1011.46
2019-04-20T00:45:07.941Z,1011.49
2019-04-20T00:46:09.129Z,1011.45
2019-04-20T00:47:13.313Z,1011.50
2019-04-20T00:48:05.703Z,1011.47
2019-04-20T00:49:15.036Z,1011.43
2019-04-20T00:50:13.678Z,1011.44
2019-04-20T00:51:22.320Z,1011.46
2019-04-20T00:53:11.402Z,1011.48
2019-04-20T00:54:00.895Z,1011.49
2019-04-20T00:55:00.016Z,1011.44
2019-04-20T00:55:59.165Z,1011.48
2019-04-20T00:57:09.289Z,1011.46
2019-04-20T00:58:11.750Z,1011.47
2019-04-20T00:59:13.123Z,1011.46
2019-04-20T01:00:17.698Z,1011.43
2019-04-20T01:01:21.886Z,1011.44
2019-04-20T01:02:18.029Z,1011.43
2019-04-20T01:03:14.306Z,1011.38
2019-04-20T01:04:20.191Z,1011.44
2019-04-20T01:05:17.968Z,1011.39
2019-04-20T01:06:19.291Z,1011.38
2019-04-20T01:07:13.745Z,1011.43
2019-04-20T01:08:02.138Z,1011.44
2019-04-20T01:08:59.211Z,1011.42
2019-04-20T01:09:58.672Z,1011.40
2019-04-20T01:11:02.718Z,1011.43
2019-04-20T01:11:58.653Z,1011.44
2019-04-20T01:13:05.066Z,1011.45
2019-04-20T01:14:04.376Z,1011.42
2019-04-20T01:15:04.282Z,1011.43
2019-04-20T01:16:07.643Z,1011.42
2019-04-20T01:17:10.990Z,1011.43
2019-04-20T01:17:59.581Z,1011.43
2019-04-20T01:18:58.598Z,1011.44
2019-04-20T01:19:58.561Z,1011.44
2019-04-20T01:21:06.814Z,1011.42
2019-04-20T01:22:06.737Z,1011.42
2019-04-20T01:23:06.493Z,1011.45
2019-04-20T01:24:02.932Z,1011.42
2019-04-20T01:25:06.882Z,1011.45
2019-04-20T01:26:05.539Z,1011.45
2019-04-20T01:27:02.486Z,1011.46
2019-04-20T01:28:16.322Z,1011.49
2019-04-20T01:29:16.149Z,1011.48
2019-04-20T01:30:10.164Z,1011.47
2019-04-20T01:31:12.607Z,1011.49
2019-04-20T01:32:14.142Z,1011.50
2019-04-20T01:33:12.480Z,1011.50
2019-04-20T01:34:08.313Z,1011.51
2019-04-20T01:35:09.999Z,1011.46
2019-04-20T01:36:19.527Z,1011.49
2019-04-20T01:37:14.483Z,1011.45
2019-04-20T01:38:16.872Z,1011.42
2019-04-20T01:39:10.315Z,1011.43
2019-04-20T01:40:03.000Z,1011.41
2019-04-20T01:40:59.347Z,1011.42
2019-04-20T01:41:58.314Z,1011.44
2019-04-20T01:42:59.513Z,1011.41
2019-04-20T01:43:58.580Z,1011.39
2019-04-20T01:44:58.972Z,1011.41
2019-04-20T01:46:07.549Z,1011.43
2019-04-20T01:47:03.196Z,1011.39
2019-04-20T01:48:01.824Z,1011.42
2019-04-20T01:48:59.914Z,1011.40
2019-04-20T01:50:03.843Z,1011.41
2019-04-20T01:51:07.369Z,1011.45
2019-04-20T01:52:08.545Z,1011.44
2019-04-20T01:53:11.492Z,1011.41
2019-04-20T01:54:16.113Z,1011.45
2019-04-20T01:55:16.773Z,1011.41
2019-04-20T01:56:15.698Z,1011.44
2019-04-20T01:57:08.245Z,1011.41
2019-04-20T01:58:17.491Z,1011.38
2019-04-20T01:59:16.379Z,1011.38
2019-04-20T02:00:08.506Z,1011.40
2019-04-20T02:01:00.731Z,1011.44
2019-04-20T02:02:04.440Z,1011.43
2019-04-20T02:03:02.933Z,1011.41
2019-04-20T02:04:01.894Z,1011.43
2019-04-20T02:05:04.460Z,1011.41
2019-04-20T02:06:06.182Z,1011.45
2019-04-20T02:07:02.937Z,1011.41
2019-04-20T02:07:59.085Z,1011.48
2019-04-20T02:09:03.354Z,1011.46
2019-04-20T02:10:03.663Z,1011.45
2019-04-20T02:11:02.176Z,1011.45
2019-04-20T02:12:05.031Z,1011.48
2019-04-20T02:13:02.586Z,1011.47
2019-04-20T02:14:02.396Z,1011.50
2019-04-20T02:15:02.756Z,1011.49
2019-04-20T02:16:09.538Z,1011.47
2019-04-20T02:17:09.534Z,1011.45
2019-04-20T02:18:10.755Z,1011.47
2019-04-20T02:19:13.781Z,1011.47
2019-04-20T02:20:17.072Z,1011.46
2019-04-20T02:21:18.375Z,1011.49
2019-04-20T02:22:09.912Z,1011.49
2019-04-20T02:23:10.739Z,1011.52
2019-04-20T02:24:02.708Z,1011.51
2019-04-20T02:24:59.523Z,1011.52
2019-04-20T02:25:58.814Z,1011.54
2019-04-20T02:26:57.969Z,1011.60
2019-04-20T02:28:14.614Z,1011.57
2019-04-20T02:29:23.638Z,1011.60
2019-04-20T02:30:34.375Z,1011.58
2019-04-20T02:31:45.265Z,1011.62
2019-04-20T02:32:26.556Z,1011.61
2019-04-20T02:34:59.849Z,1011.60
2019-04-20T02:35:40.445Z,1011.63
2019-04-20T02:36:40.300Z,1011.57
2019-04-20T02:37:38.989Z,1011.60
2019-04-20T02:38:38.878Z,1011.56
2019-04-20T02:41:35.114Z,1011.57
2019-04-20T02:42:35.308Z,1011.56
2019-04-20T02:43:41.969Z,1011.58
2019-04-20T02:44:38.013Z,1011.55
2019-04-20T02:45:36.539Z,1011.59
2019-04-20T02:46:33.653Z,1011.60
2019-04-20T02:48:37.365Z,1011.61
2019-04-20T02:50:36.178Z,1011.58
2019-04-20T02:51:38.992Z,1011.57
2019-04-20T02:53:41.153Z,1011.62
2019-04-20T02:54:25.980Z,1011.59
2019-04-20T02:56:41.828Z,1011.56
2019-04-20T02:57:35.958Z,1011.58
2019-04-20T02:58:34.194Z,1011.64
2019-04-20T03:00:25.115Z,1011.62
2019-04-20T03:02:17.003Z,1011.60
2019-04-20T03:03:10.139Z,1011.60
2019-04-20T03:04:04.338Z,1011.60
2019-04-20T03:05:13.386Z,1011.63
2019-04-20T03:06:13.660Z,1011.60
2019-04-20T03:07:15.216Z,1011.61
2019-04-20T03:08:20.166Z,1011.62
2019-04-20T03:09:19.887Z,1011.58
2019-04-20T03:10:17.304Z,1011.60
2019-04-20T03:11:24.816Z,1011.59
2019-04-20T03:12:23.846Z,1011.58
2019-04-20T03:13:18.599Z,1011.58
2019-04-20T03:14:20.048Z,1011.59
2019-04-20T03:15:18.556Z,1011.54
2019-04-20T03:16:16.300Z,1011.54
2019-04-20T03:17:25.749Z,1011.60
2019-04-20T03:18:19.254Z,1011.63
2019-04-20T03:19:14.221Z,1011.60
2019-04-20T03:20:19.998Z,1011.57
2019-04-20T03:21:27.361Z,1011.61
2019-04-20T03:22:23.630Z,1011.57
2019-04-20T03:23:29.731Z,1011.57
2019-04-20T03:24:27.070Z,1011.60
2019-04-20T03:25:20.502Z,1011.57
2019-04-20T03:26:17.630Z,1011.57
2019-04-20T03:27:16.092Z,1011.57
2019-04-20T03:28:19.478Z,1011.61
2019-04-20T03:29:13.971Z,1011.61
2019-04-20T03:31:00.955Z,1011.61
2019-04-20T03:31:45.000Z,1011.64
2019-04-20T03:32:57.921Z,1011.65
2019-04-20T03:33:30.992Z,1011.65
2019-04-20T03:34:48.735Z,1011.67
2019-04-20T03:35:22.625Z,1011.67
2019-04-20T03:36:25.544Z,1011.66
2019-04-20T03:37:28.088Z,1011.63
2019-04-20T03:38:14.264Z,1011.65
2019-04-20T03:39:19.101Z,1011.63
2019-04-20T03:40:12.807Z,1011.59
2019-04-20T03:41:09.534Z,1011.62
2019-04-20T03:41:59.291Z,1011.58
2019-04-20T03:42:57.047Z,1011.59
2019-04-20T03:44:04.089Z,1011.62
2019-04-20T03:45:04.090Z,1011.62
2019-04-20T03:46:04.734Z,1011.65
2019-04-20T03:47:02.790Z,1011.66
2019-04-20T03:48:11.566Z,1011.69
2019-04-20T03:49:15.497Z,1011.67
2019-04-20T03:50:18.780Z,1011.65
2019-04-20T03:51:26.913Z,1011.66
2019-04-20T03:52:16.385Z,1011.64
2019-04-20T03:53:19.882Z,1011.62
2019-04-20T03:54:14.761Z,1011.61
2019-04-20T03:55:17.480Z,1011.60
2019-04-20T03:56:22.598Z,1011.61
2019-04-20T03:57:20.961Z,1011.64
2019-04-20T03:58:18.629Z,1011.56
2019-04-20T03:59:11.596Z,1011.63
2019-04-20T04:00:16.280Z,1011.64
2019-04-20T04:01:19.762Z,1011.60
2019-04-20T04:03:45.893Z,1011.62
2019-04-20T04:04:21.430Z,1011.64
2019-04-20T04:05:16.488Z,1011.65
2019-04-20T04:06:09.607Z,1011.61
2019-04-20T04:07:01.339Z,1011.60
2019-04-20T04:08:06.174Z,1011.62
2019-04-20T04:09:12.231Z,1011.64
2019-04-20T04:10:14.408Z,1011.63
2019-04-20T04:11:15.980Z,1011.61
2019-04-20T04:12:09.112Z,1011.61
2019-04-20T04:12:58.804Z,1011.61
2019-04-20T04:13:56.719Z,1011.63
2019-04-20T04:14:57.828Z,1011.64
2019-04-20T04:16:02.815Z,1011.63
2019-04-20T04:17:00.929Z,1011.64
2019-04-20T04:18:04.396Z,1011.66
2019-04-20T04:19:04.550Z,1011.65
2019-04-20T04:20:05.039Z,1011.65
2019-04-20T04:21:03.641Z,1011.65
2019-04-20T04:22:11.544Z,1011.65
2019-04-20T04:23:16.492Z,1011.65
2019-04-20T04:24:09.547Z,1011.70
2019-04-20T04:25:14.603Z,1011.69
2019-04-20T04:26:20.392Z,1011.72
2019-04-20T04:27:09.431Z,1011.71
2019-04-20T04:28:15.233Z,1011.76
2019-04-20T04:29:21.318Z,1011.75
2019-04-20T04:30:14.831Z,1011.75
2019-04-20T04:31:16.471Z,1011.70
2019-04-20T04:32:23.581Z,1011.72
2019-04-20T04:33:44.627Z,1011.73
2019-04-20T04:34:14.600Z,1011.73
2019-04-20T04:35:09.224Z,1011.74
2019-04-20T04:36:15.392Z,1011.77
2019-04-20T04:37:17.950Z,1011.82
2019-04-20T04:38:24.093Z,1011.79
2019-04-20T04:39:22.892Z,1011.76
2019-04-20T04:40:27.851Z,1011.76
2019-04-20T04:41:39.941Z,1011.77
2019-04-20T04:42:34.192Z,1011.78
2019-04-20T04:43:15.991Z,1011.83
2019-04-20T04:44:11.960Z,1011.78
2019-04-20T04:45:04.220Z,1011.75
2019-04-20T04:45:57.485Z,1011.77
2019-04-20T04:47:00.263Z,1011.77
2019-04-20T04:47:57.763Z,1011.78
2019-04-20T04:49:07.482Z,1011.77
2019-04-20T04:50:05.614Z,1011.81
2019-04-20T04:51:03.166Z,1011.84
2019-04-20T04:52:03.893Z,1011.83
2019-04-20T04:53:04.548Z,1011.83
2019-04-20T04:54:05.814Z,1011.81
2019-04-20T04:55:11.268Z,1011.86
2019-04-20T04:56:04.837Z,1011.82
2019-04-20T04:56:57.119Z,1011.86
2019-04-20T04:57:56.135Z,1011.88
2019-04-20T04:58:56.239Z,1011.85
2019-04-20T04:59:57.297Z,1011.86
2019-04-20T05:01:01.353Z,1011.87
2019-04-20T05:01:58.393Z,1011.89
2019-04-20T05:03:00.912Z,1011.87
2019-04-20T05:05:17.761Z,1011.88
2019-04-20T05:06:14.773Z,1011.89
2019-04-20T05:07:12.871Z,1011.88
2019-04-20T05:08:09.104Z,1011.95
2019-04-20T05:09:01.857Z,1011.95
2019-04-20T05:09:57.049Z,1011.93
2019-04-20T05:10:56.267Z,1011.92
2019-04-20T05:12:02.757Z,1011.97
2019-04-20T05:12:56.944Z,1011.92
2019-04-20T05:14:02.065Z,1011.94
2019-04-20T05:15:06.062Z,1011.96
2019-04-20T05:16:08.986Z,1011.94
2019-04-20T05:17:11.648Z,1011.95
2019-04-20T05:18:19.145Z,1012.02
2019-04-20T05:19:19.307Z,1012.05
2019-04-20T05:20:15.099Z,1012.05
2019-04-20T05:21:15.276Z,1012.04
2019-04-20T05:22:13.751Z,1012.03
2019-04-20T05:23:13.029Z,1011.97
2019-04-20T05:24:13.268Z,1012.01
2019-04-20T05:26:19.666Z,1011.97
2019-04-20T05:27:20.903Z,1011.93
2019-04-20T05:28:14.449Z,1011.99
2019-04-20T05:29:06.747Z,1011.98
2019-04-20T05:29:57.084Z,1011.99
2019-04-20T05:30:59.984Z,1011.98
2019-04-20T05:32:03.497Z,1011.96
2019-04-20T05:33:03.352Z,1011.99
2019-04-20T05:34:19.974Z,1011.95
2019-04-20T05:35:24.099Z,1011.97
2019-04-20T05:36:18.952Z,1011.95
2019-04-20T05:37:29.658Z,1011.96
2019-04-20T05:38:28.353Z,1011.95
2019-04-20T05:39:21.483Z,1011.95
2019-04-20T05:40:20.494Z,1011.97
2019-04-20T05:41:11.703Z,1011.99
2019-04-20T05:42:22.125Z,1011.99
2019-04-20T05:43:17.934Z,1011.98
2019-04-20T05:44:13.056Z,1011.99
2019-04-20T05:45:11.730Z,1012.05
2019-04-20T05:46:18.481Z,1012.08
2019-04-20T05:47:16.978Z,1012.05
2019-04-20T05:48:11.916Z,1011.98
2019-04-20T05:49:23.357Z,1011.99
2019-04-20T05:50:08.550Z,1011.96
2019-04-20T05:51:21.601Z,1011.97
2019-04-20T05:52:31.581Z,1011.96
2019-04-20T05:53:22.186Z,1011.96
2019-04-20T05:54:20.310Z,1012.00
2019-04-20T05:55:19.100Z,1011.94
2019-04-20T05:56:16.993Z,1011.96
2019-04-20T05:57:21.060Z,1012.04
2019-04-20T05:58:16.499Z,1012.02
2019-04-20T05:59:15.021Z,1011.99
2019-04-20T06:00:19.202Z,1012.05
2019-04-20T06:01:22.769Z,1011.97
2019-04-20T06:02:15.941Z,1011.97
2019-04-20T06:03:15.235Z,1011.96
2019-04-20T06:04:17.287Z,1011.94
2019-04-20T06:05:19.587Z,1011.97
2019-04-20T06:06:20.641Z,1011.97
2019-04-20T06:07:21.469Z,1011.95
2019-04-20T06:08:28.830Z,1011.96
2019-04-20T06:09:28.026Z,1011.98
2019-04-20T06:10:20.805Z,1011.96
2019-04-20T06:11:24.076Z,1012.00
2019-04-20T06:13:14.989Z,1011.94
2019-04-20T06:14:07.058Z,1011.95
2019-04-20T06:15:11.851Z,1012.02
2019-04-20T06:16:14.401Z,1012.00
2019-04-20T06:17:21.003Z,1011.97
2019-04-20T06:18:12.337Z,1011.93
2019-04-20T06:19:26.059Z,1011.94
2019-04-20T06:20:25.357Z,1011.97
2019-04-20T06:21:27.752Z,1011.97
2019-04-20T06:22:21.740Z,1012.01
2019-04-20T06:23:19.659Z,1012.01
2019-04-20T06:24:19.278Z,1012.00
2019-04-20T06:25:40.834Z,1012.03
2019-04-20T06:26:28.221Z,1012.01
2019-04-20T06:27:14.581Z,1012.03
2019-04-20T06:28:12.722Z,1012.05
2019-04-20T06:29:15.686Z,1012.00
2019-04-20T06:30:13.776Z,1012.04
2019-04-20T06:32:20.833Z,1011.96
2019-04-20T06:33:28.547Z,1011.98
2019-04-20T06:34:39.925Z,1012.03
2019-04-20T06:35:30.578Z,1012.04
2019-04-20T06:36:26.162Z,1012.03
2019-04-20T06:37:16.320Z,1012.05
2019-04-20T06:38:40.300Z,1012.06
2019-04-20T06:39:20.289Z,1012.08
2019-04-20T06:40:37.991Z,1012.06
2019-04-20T06:41:21.620Z,1012.06
2019-04-20T06:42:18.106Z,1012.07
2019-04-20T06:43:13.001Z,1012.03
2019-04-20T06:44:26.687Z,1012.06
2019-04-20T06:45:19.806Z,1012.03
2019-04-20T06:46:15.261Z,1012.06
2019-04-20T06:47:22.775Z,1012.05
2019-04-20T06:48:22.121Z,1012.03
2019-04-20T06:49:24.511Z,1012.04
2019-04-20T06:50:14.957Z,1012.08
2019-04-20T06:51:20.655Z,1012.04
2019-04-20T06:52:23.119Z,1012.03
2019-04-20T06:53:28.559Z,1012.06
2019-04-20T06:54:07.784Z,1012.03
2019-04-20T06:55:16.837Z,1012.01
2019-04-20T06:56:21.676Z,1012.01
2019-04-20T06:57:21.100Z,1011.99
2019-04-20T06:58:36.410Z,1012.01
2019-04-20T06:59:21.425Z,1012.03
2019-04-20T07:00:15.728Z,1012.03
2019-04-20T07:01:17.130Z,1012.04
2019-04-20T07:02:24.589Z,1012.00
2019-04-20T07:03:30.984Z,1011.98
2019-04-20T07:04:36.448Z,1011.97
2019-04-20T07:05:20.792Z,1011.95
2019-04-20T07:06:42.158Z,1011.95
2019-04-20T07:07:18.469Z,1012.01
2019-04-20T07:08:33.079Z,1011.92
2019-04-20T07:09:21.698Z,1011.94
2019-04-20T07:10:22.066Z,1011.94
2019-04-20T07:11:18.824Z,1011.97
2019-04-20T07:12:12.584Z,1011.99
2019-04-20T07:13:11.819Z,1012.00
2019-04-20T07:14:02.821Z,1012.02
2019-04-20T07:15:16.294Z,1011.96
2019-04-20T07:16:18.563Z,1011.96
2019-04-20T07:17:28.414Z,1011.96
2019-04-20T07:18:18.643Z,1011.99
2019-04-20T07:19:19.013Z,1012.00
2019-04-20T07:20:10.306Z,1011.91
2019-04-20T07:21:23.482Z,1012.01
2019-04-20T07:22:32.137Z,1011.99
2019-04-20T07:23:23.825Z,1011.97
2019-04-20T07:24:18.070Z,1011.99
2019-04-20T07:25:19.018Z,1011.97
2019-04-20T07:26:23.763Z,1012.00
2019-04-20T07:27:14.932Z,1011.99
2019-04-20T07:28:19.585Z,1011.98
2019-04-20T07:29:24.033Z,1011.98
2019-04-20T07:30:16.448Z,1012.00
2019-04-20T07:31:13.162Z,1011.99
2019-04-20T07:32:09.930Z,1011.94
2019-04-20T07:33:16.083Z,1011.93
2019-04-20T07:34:15.688Z,1011.93
2019-04-20T07:35:15.079Z,1011.96
2019-04-20T07:36:20.168Z,1011.93
2019-04-20T07:37:43.201Z,1011.90
2019-04-20T07:38:34.322Z,1011.90
2019-04-20T07:39:22.958Z,1011.89
2019-04-20T07:40:17.622Z,1011.90
2019-04-20T07:41:23.644Z,1011.91
2019-04-20T07:42:21.191Z,1011.90
2019-04-20T07:43:16.393Z,1011.84
2019-04-20T07:44:19.936Z,1011.85
2019-04-20T07:45:24.407Z,1011.82
2019-04-20T07:46:24.966Z,1011.84
2019-04-20T07:47:24.177Z,1011.85
2019-04-20T07:48:15.482Z,1011.87
2019-04-20T07:49:22.435Z,1011.86
2019-04-20T07:50:09.324Z,1011.87
2019-04-20T07:51:05.857Z,1011.89
2019-04-20T07:51:55.597Z,1011.81
2019-04-20T07:53:13.489Z,1011.82
2019-04-20T07:54:24.600Z,1011.84
2019-04-20T07:56:20.762Z,1011.80
2019-04-20T07:57:15.479Z,1011.85
2019-04-20T07:58:08.283Z,1011.83
2019-04-20T07:59:03.665Z,1011.77
2019-04-20T08:00:16.328Z,1011.81
2019-04-20T08:01:23.880Z,1011.81
2019-04-20T08:02:25.006Z,1011.80
2019-04-20T08:03:23.707Z,1011.79
2019-04-20T08:04:13.437Z,1011.75
2019-04-20T08:05:04.411Z,1011.73
2019-04-20T08:06:03.705Z,1011.76
2019-04-20T08:06:59.120Z,1011.73
2019-04-20T08:08:16.821Z,1011.70
2019-04-20T08:09:07.371Z,1011.71
2019-04-20T08:10:00.589Z,1011.68
2019-04-20T08:11:13.863Z,1011.76
2019-04-20T08:12:22.127Z,1011.69
2019-04-20T08:14:22.468Z,1011.65
2019-04-20T08:15:22.059Z,1011.66
2019-04-20T08:16:32.967Z,1011.72
2019-04-20T08:17:28.957Z,1011.72
2019-04-20T08:18:22.852Z,1011.69
2019-04-20T08:19:10.140Z,1011.69
2019-04-20T08:20:18.883Z,1011.67
2019-04-20T08:21:20.896Z,1011.68
2019-04-20T08:22:21.649Z,1011.71
2019-04-20T08:23:17.517Z,1011.68
2019-04-20T08:24:13.456Z,1011.69
2019-04-20T08:25:08.602Z,1011.65
2019-04-20T08:26:06.707Z,1011.66
2019-04-20T08:26:59.008Z,1011.60
2019-04-20T08:27:55.029Z,1011.62
2019-04-20T08:29:00.182Z,1011.63
2019-04-20T08:30:09.093Z,1011.61
2019-04-20T08:31:09.357Z,1011.62
2019-04-20T08:32:16.117Z,1011.61
2019-04-20T08:33:13.307Z,1011.61
2019-04-20T08:34:18.561Z,1011.57
2019-04-20T08:35:22.934Z,1011.54
2019-04-20T08:36:16.836Z,1011.57
2019-04-20T08:37:11.093Z,1011.55
2019-04-20T08:38:47.320Z,1011.58
2019-04-20T08:40:15.052Z,1011.56
2019-04-20T08:41:14.252Z,1011.55
2019-04-20T08:42:16.198Z,1011.58
2019-04-20T08:43:30.254Z,1011.56
2019-04-20T08:44:35.334Z,1011.54
2019-04-20T08:45:16.598Z,1011.54
2019-04-20T08:46:15.065Z,1011.53
2019-04-20T08:47:21.584Z,1011.53
2019-04-20T08:48:18.031Z,1011.57
2019-04-20T08:49:22.490Z,1011.55
2019-04-20T08:50:20.964Z,1011.53
2019-04-20T08:51:16.532Z,1011.53
2019-04-20T08:52:41.272Z,1011.52
2019-04-20T08:53:20.512Z,1011.49
2019-04-20T08:54:12.399Z,1011.51
2019-04-20T08:55:10.269Z,1011.47
2019-04-20T08:56:09.970Z,1011.46
2019-04-20T08:56:58.457Z,1011.50
2019-04-20T08:57:54.462Z,1011.47
2019-04-20T08:58:53.407Z,1011.47
2019-04-20T08:59:54.379Z,1011.45
2019-04-20T09:00:58.777Z,1011.48
2019-04-20T09:01:58.122Z,1011.43
2019-04-20T09:03:00.898Z,1011.50
2019-04-20T09:04:04.640Z,1011.50
2019-04-20T09:05:01.055Z,1011.49
2019-04-20T09:06:04.626Z,1011.50
2019-04-20T09:07:07.696Z,1011.49
2019-04-20T09:08:06.942Z,1011.47
2019-04-20T09:09:11.681Z,1011.45
2019-04-20T09:10:16.398Z,1011.43
2019-04-20T09:11:12.754Z,1011.46
2019-04-20T09:12:09.061Z,1011.43
2019-04-20T09:13:05.740Z,1011.42
2019-04-20T09:13:58.445Z,1011.39
2019-04-20T09:14:55.184Z,1011.40
2019-04-20T09:15:53.535Z,1011.41
2019-04-20T09:16:59.721Z,1011.42
2019-04-20T09:18:00.671Z,1011.35
2019-04-20T09:19:00.006Z,1011.41
2019-04-20T09:19:58.612Z,1011.41
2019-04-20T09:21:01.173Z,1011.42
2019-04-20T09:22:03.206Z,1011.35
2019-04-20T09:23:13.475Z,1011.37
2019-04-20T09:24:19.762Z,1011.34
2019-04-20T09:25:40.022Z,1011.31
2019-04-20T09:26:29.703Z,1011.30
2019-04-20T09:27:10.303Z,1011.31
2019-04-20T09:28:07.493Z,1011.34
2019-04-20T09:29:05.843Z,1011.30
2019-04-20T09:30:16.105Z,1011.32
2019-04-20T09:31:13.253Z,1011.29
2019-04-20T09:32:14.176Z,1011.26
2019-04-20T09:33:16.772Z,1011.23
2019-04-20T09:34:13.269Z,1011.29
2019-04-20T09:35:13.563Z,1011.26
2019-04-20T09:36:10.336Z,1011.27
2019-04-20T09:37:14.161Z,1011.24
2019-04-20T09:38:12.267Z,1011.25
2019-04-20T09:39:07.806Z,1011.24
2019-04-20T09:40:15.794Z,1011.26
2019-04-20T09:41:09.220Z,1011.27
2019-04-20T09:42:00.833Z,1011.21
2019-04-20T09:42:53.906Z,1011.20
2019-04-20T09:43:54.110Z,1011.17
2019-04-20T09:44:56.194Z,1011.19
2019-04-20T09:46:00.030Z,1011.17
2019-04-20T09:46:56.760Z,1011.17
2019-04-20T09:47:56.450Z,1011.19
2019-04-20T09:48:57.895Z,1011.19
2019-04-20T09:50:03.774Z,1011.21
2019-04-20T09:51:16.847Z,1011.22
2019-04-20T09:52:07.855Z,1011.16
2019-04-20T09:53:11.558Z,1011.18
2019-04-20T09:54:04.383Z,1011.10
2019-04-20T09:55:06.805Z,1011.09
2019-04-20T09:56:14.450Z,1011.08
2019-04-20T09:57:13.268Z,1011.11
2019-04-20T09:58:06.287Z,1011.08
2019-04-20T09:59:12.267Z,1011.12
2019-04-20T10:00:11.805Z,1011.08
2019-04-20T10:01:08.366Z,1011.07
2019-04-20T10:02:02.192Z,1011.10
2019-04-20T10:02:54.690Z,1011.13
2019-04-20T10:03:52.815Z,1011.03
2019-04-20T10:04:53.487Z,1011.03
2019-04-20T10:05:53.788Z,1011.04
2019-04-20T10:06:52.666Z,1011.00
2019-04-20T10:07:56.007Z,1011.06
2019-04-20T10:08:56.795Z,1011.01
2019-04-20T10:09:53.919Z,1011.01
2019-04-20T10:10:54.215Z,1011.05
2019-04-20T10:11:53.224Z,1011.04
2019-04-20T10:12:52.568Z,1011.02
2019-04-20T10:13:52.565Z,1010.97
2019-04-20T10:14:53.238Z,1011.01
2019-04-20T10:15:53.416Z,1011.01
2019-04-20T10:16:53.714Z,1010.96
2019-04-20T10:17:52.515Z,1010.97
2019-04-20T10:18:54.989Z,1010.90
2019-04-20T10:19:53.676Z,1010.86
2019-04-20T10:20:53.785Z,1010.88
2019-04-20T10:21:52.872Z,1010.89
2019-04-20T10:22:52.473Z,1010.87
2019-04-20T10:23:52.554Z,1010.89
2019-04-20T10:24:53.807Z,1010.92
2019-04-20T10:25:52.447Z,1010.86
2019-04-20T10:26:52.552Z,1010.83
2019-04-20T10:27:53.531Z,1010.87
2019-04-20T10:28:52.395Z,1010.83
2019-04-20T10:29:53.511Z,1010.83
2019-04-20T10:30:52.663Z,1010.86
2019-04-20T10:31:57.167Z,1010.81
2019-04-20T10:32:54.074Z,1010.84
2019-04-20T10:33:53.460Z,1010.74
2019-04-20T10:34:52.758Z,1010.74
2019-04-20T10:35:52.314Z,1010.77
2019-04-20T10:36:53.407Z,1010.81
2019-04-20T10:37:53.510Z,1010.76
2019-04-20T10:38:52.681Z,1010.83
2019-04-20T10:39:52.428Z,1010.88
2019-04-20T10:41:03.500Z,1010.80
2019-04-20T10:41:57.661Z,1010.83
2019-04-20T10:42:53.257Z,1010.79
2019-04-20T10:43:53.139Z,1010.76
2019-04-20T10:44:55.324Z,1010.77
2019-04-20T10:45:52.982Z,1010.71
2019-04-20T10:46:53.359Z,1010.77
2019-04-20T10:47:52.821Z,1010.77
2019-04-20T10:48:54.468Z,1010.73
2019-04-20T10:49:53.275Z,1010.67
2019-04-20T10:50:52.811Z,1010.73
2019-04-20T10:51:52.138Z,1010.71
2019-04-20T10:52:52.125Z,1010.71
2019-04-20T10:53:52.139Z,1010.71
2019-04-20T10:54:52.349Z,1010.67
2019-04-20T10:55:53.216Z,1010.70
2019-04-20T10:56:52.084Z,1010.72
2019-04-20T10:57:53.328Z,1010.71
2019-04-20T10:58:52.060Z,1010.70
2019-04-20T10:59:52.091Z,1010.64
2019-04-20T11:00:53.449Z,1010.72
2019-04-20T11:01:52.051Z,1010.72
2019-04-20T11:02:52.482Z,1010.67
2019-04-20T11:03:52.306Z,1010.65
2019-04-20T11:04:52.609Z,1010.58
2019-04-20T11:05:52.976Z,1010.65
2019-04-20T11:06:52.453Z,1010.64
2019-04-20T11:07:52.627Z,1010.57
2019-04-20T11:08:52.873Z,1010.58
2019-04-20T11:10:04.398Z,1010.56
2019-04-20T11:11:05.113Z,1010.57
2019-04-20T11:11:52.942Z,1010.50
2019-04-20T11:12:52.533Z,1010.45
2019-04-20T11:13:53.164Z,1010.48
2019-04-20T11:14:52.354Z,1010.51
2019-04-20T11:15:52.659Z,1010.46
2019-04-20T11:16:51.859Z,1010.47
2019-04-20T11:17:53.210Z,1010.42
2019-04-20T11:18:51.860Z,1010.44
2019-04-20T11:19:51.852Z,1010.47
2019-04-20T11:20:53.188Z,1010.43
2019-04-20T11:21:52.357Z,1010.46
2019-04-20T11:22:52.675Z,1010.44
2019-04-20T11:23:52.121Z,1010.44
2019-04-20T11:24:52.369Z,1010.42
2019-04-20T11:25:52.475Z,1010.43
2019-04-20T11:26:52.103Z,1010.41
2019-04-20T11:27:52.269Z,1010.40
2019-04-20T11:28:52.481Z,1010.43
2019-04-20T11:29:51.962Z,1010.36
2019-04-20T11:30:52.174Z,1010.38
2019-04-20T11:31:55.668Z,1010.36
2019-04-20T11:32:51.977Z,1010.30
2019-04-20T11:33:52.270Z,1010.30
2019-04-20T11:34:51.661Z,1010.31
2019-04-20T11:35:51.652Z,1010.24
2019-04-20T11:36:52.934Z,1010.28
2019-04-20T11:37:51.657Z,1010.25
2019-04-20T11:38:51.616Z,1010.28
2019-04-20T11:39:52.686Z,1010.27
2019-04-20T11:41:04.094Z,1010.22
2019-04-20T11:41:53.868Z,1010.23
2019-04-20T11:42:51.574Z,1010.23
2019-04-20T11:43:51.596Z,1010.22
2019-04-20T11:44:52.827Z,1010.21
2019-04-20T11:45:51.547Z,1010.18
2019-04-20T11:46:52.541Z,1010.12
2019-04-20T11:47:51.660Z,1010.15
2019-04-20T11:48:51.882Z,1010.11
2019-04-20T11:49:51.497Z,1010.09
2019-04-20T11:50:51.655Z,1010.12
2019-04-20T11:51:51.825Z,1010.11
2019-04-20T11:52:51.596Z,1010.04
2019-04-20T11:53:52.249Z,1010.06
2019-04-20T11:54:52.583Z,1010.07
2019-04-20T11:55:52.103Z,1010.06
2019-04-20T11:56:51.419Z,1010.06
2019-04-20T11:57:51.407Z,1010.10
2019-04-20T11:58:51.422Z,1010.06
2019-04-20T11:59:51.387Z,1010.05
2019-04-20T12:01:00.734Z,1010.03
2019-04-20T12:02:00.115Z,1010.02
2019-04-20T12:02:54.283Z,1009.96
2019-04-20T12:04:00.373Z,1009.93
2019-04-20T12:05:08.859Z,1009.91
2019-04-20T12:05:56.938Z,1009.91
2019-04-20T12:06:52.875Z,1009.88
2019-04-20T12:07:51.331Z,1009.87
2019-04-20T12:08:52.522Z,1009.83
2019-04-20T12:09:51.502Z,1009.85
2019-04-20T12:10:55.784Z,1009.81
2019-04-20T12:12:06.270Z,1009.76
2019-04-20T12:12:55.422Z,1009.76
2019-04-20T12:13:52.248Z,1009.75
2019-04-20T12:14:52.500Z,1009.75
2019-04-20T12:15:51.849Z,1009.71
2019-04-20T12:16:51.198Z,1009.71
2019-04-20T12:17:51.512Z,1009.71
2019-04-20T12:18:52.410Z,1009.72
2019-04-20T12:19:52.979Z,1009.68
2019-04-20T12:20:52.532Z,1009.66
2019-04-20T12:21:51.694Z,1009.64
2019-04-20T12:22:52.497Z,1009.67